Time;durP1;ratioP1;P1;durP2;ratioP2;P2;SDS_P1;SDS_P2;PMS_P1;PMS_P2;Temp;Humidity;BMP_temperature;BMP_pressure;BME280_temperature;BME280_humidity;BME280_pressure;Samples;Min_cycle;Max_cycle;Signal;HPM_P1;HPM_P2
2023/08/07 10:43:47;;;;;;;;;4.00;3.00;;;;;22.29;45.83;101629.09;5938886;23;46498;-48
2023/08/07 10:46:15;;;;;;;;;2.00;2.00;;;;;22.28;46.23;101635.28;4976922;28;45327;-49
2023/08/07 10:48:53;;;;;;;;;5.00;2.00;;;;;22.28;46.01;101637.94;4977008;28;45268;-49
2023/08/07 10:51:18;;;;;;;;;3.50;3.00;;;;;22.27;45.71;101630.94;4976679;28;45798;-49
2023/08/07 10:53:47;;;;;;;;;5.00;2.25;;;;;22.28;45.99;101614.16;4976667;28;45249;-47
2023/08/07 10:56:29;;;;;;;;;2.00;2.00;;;;;22.27;46.08;101623.03;4976778;28;45178;-46
2023/08/07 10:58:55;;;;;;;;;3.50;3.50;;;;;22.26;46.02;101621.31;4976955;28;45205;-40
2023/08/07 11:01:26;;;;;;;;;2.00;2.00;;;;;22.28;45.55;101624.72;4976602;28;45443;-46
2023/08/07 11:03:53;;;;;;;;;3.00;3.00;;;;;22.26;46.25;101611.63;4976709;28;45336;-46
2023/08/07 11:06:33;;;;;;;;;1.50;1.50;;;;;22.27;45.84;101623.03;4979747;28;45522;-52
2023/08/07 11:08:59;;;;;;;;;2.75;1.75;;;;;22.28;45.33;101624.72;4980710;28;45214;-40
2023/08/07 11:11:26;;;;;;;;;2.50;2.00;;;;;22.29;45.71;101613.25;4980070;28;46816;-44
2023/08/07 11:13:52;;;;;;;;;3.25;2.00;;;;;22.28;45.35;101608.88;4980082;28;45667;-50
2023/08/07 11:16:20;;;;;;;;;2.50;2.00;;;;;22.28;45.30;101608.88;4980211;28;45419;-50
2023/08/07 11:18:47;;;;;;;;;2.75;2.75;;;;;22.28;45.50;101606.25;4980352;28;45492;-52
2023/08/07 11:21:13;;;;;;;;;2.00;1.50;;;;;22.28;44.94;101603.59;4979892;28;45316;-52
2023/08/07 11:23:39;;;;;;;;;3.00;2.50;;;;;22.28;45.30;101587.75;4979826;28;45419;-53
2023/08/07 11:26:05;;;;;;;;;2.75;2.75;;;;;22.28;45.25;101590.41;4980084;28;45281;-50
2023/08/07 11:28:30;;;;;;;;;1.75;1.75;;;;;22.29;45.18;101589.47;4980321;28;45575;-50
2023/08/07 11:30:56;;;;;;;;;1.00;1.00;;;;;22.29;44.84;101586.84;4979709;28;46539;-45
2023/08/07 11:33:23;;;;;;;;;1.75;1.75;;;;;22.26;44.83;101587.84;4979741;28;45479;-48
2023/08/07 11:35:50;;;;;;;;;2.00;2.00;;;;;22.26;45.04;101585.22;4979887;28;45506;-45
2023/08/07 11:38:36;;;;;;;;;1.75;1.75;;;;;22.26;44.88;101586.97;4980025;28;45469;-43
2023/08/07 11:41:03;;;;;;;;;2.25;2.25;;;;;22.27;45.02;101586.88;4979976;28;46379;-42
2023/08/07 11:43:30;;;;;;;;;2.25;2.25;;;;;22.26;44.95;101584.34;4979609;28;45380;-43
2023/08/07 11:45:58;;;;;;;;;1.50;1.50;;;;;22.26;44.82;101584.34;4979398;28;45360;-42
2023/08/07 11:48:26;;;;;;;;;2.50;2.00;;;;;22.26;44.94;101579.06;4981798;28;45540;-44
2023/08/07 11:50:52;;;;;;;;;2.00;2.00;;;;;22.25;44.49;101586.13;4997622;28;46337;-47
2023/08/07 11:53:19;;;;;;;;;2.50;1.00;;;;;22.24;44.79;101577.34;4980109;28;45325;-48
2023/08/07 11:55:59;;;;;;;;;5.00;3.00;;;;;22.24;44.88;101577.34;4978920;28;45195;-46
2023/08/07 11:58:26;;;;;;;;;2.00;2.00;;;;;22.26;44.90;101584.34;4979415;28;45527;-46
2023/08/07 12:00:51;;;;;;;;;2.25;2.25;;;;;22.24;44.44;101572.06;4978886;28;45475;-50
2023/08/07 12:03:25;;;;;;;;;3.50;3.00;;;;;22.27;44.87;101565.75;4978682;28;45447;-46
2023/08/07 12:05:51;;;;;;;;;1.75;1.75;;;;;22.28;44.67;101561.34;4977649;28;45763;-49
2023/08/07 12:08:16;;;;;;;;;3.75;2.00;;;;;22.27;44.54;101557.84;4978102;28;45594;-45
2023/08/07 12:10:41;;;;;;;;;2.00;2.00;;;;;22.29;44.47;101560.44;4979088;28;45328;-48
2023/08/07 12:13:08;;;;;;;;;2.50;2.00;;;;;22.31;44.25;101562.03;4978908;28;45370;-44
2023/08/07 12:15:33;;;;;;;;;5.00;2.00;;;;;22.30;44.35;101554.22;4978737;28;45313;-43
2023/08/07 12:18:02;;;;;;;;;3.00;3.00;;;;;22.30;44.22;101549.78;4978259;28;57519;-45
2023/08/07 12:20:27;;;;;;;;;4.00;2.00;;;;;22.30;44.48;101548.94;4978945;28;46881;-44
2023/08/07 12:22:52;;;;;;;;;3.50;2.00;;;;;22.31;44.17;101548.00;4978418;28;45347;-44
2023/08/07 12:25:18;;;;;;;;;2.00;2.00;;;;;22.31;44.32;101554.13;4978766;28;45417;-44
2023/08/07 12:27:46;;;;;;;;;2.75;2.00;;;;;22.33;44.32;101554.03;4978718;28;45388;-45
2023/08/07 12:30:12;;;;;;;;;1.75;1.75;;;;;22.33;44.22;101551.38;4978655;28;46528;-46
2023/08/07 12:32:37;;;;;;;;;3.75;3.00;;;;;22.32;44.37;101536.50;4978506;28;45594;-42
2023/08/07 12:35:03;;;;;;;;;3.25;2.25;;;;;22.33;44.19;101543.47;4978520;28;50931;-46
2023/08/07 12:37:28;;;;;;;;;2.00;2.00;;;;;22.32;43.97;101541.78;4978794;28;45498;-50
2023/08/07 12:39:53;;;;;;;;;3.75;3.25;;;;;22.31;43.84;101529.50;4978355;28;49616;-45
2023/08/07 12:42:19;;;;;;;;;2.00;2.00;;;;;22.34;44.13;101535.50;4978044;28;54751;-49
2023/08/07 12:44:44;;;;;;;;;2.25;2.25;;;;;22.33;44.16;101541.69;4977990;28;49985;-45
2023/08/07 12:47:10;;;;;;;;;3.00;3.00;;;;;22.33;43.98;101536.41;4978322;28;45299;-47
2023/08/07 12:49:35;;;;;;;;;3.50;3.00;;;;;22.34;43.93;101534.63;4978676;28;47324;-46
2023/08/07 12:52:00;;;;;;;;;3.25;2.50;;;;;22.34;44.02;101530.22;4978113;28;45375;-44
2023/08/07 12:54:26;;;;;;;;;3.00;3.00;;;;;22.35;44.24;101536.31;4978636;28;45367;-48
2023/08/07 12:56:52;;;;;;;;;4.00;3.00;;;;;22.35;43.84;101531.03;4978293;28;45464;-49
2023/08/07 12:59:17;;;;;;;;;2.75;2.25;;;;;22.36;43.99;101538.03;4978304;28;46208;-44
2023/08/07 13:01:43;;;;;;;;;3.00;3.00;;;;;22.36;43.96;101523.06;4977942;28;53075;-47
2023/08/07 13:04:08;;;;;;;;;3.75;3.75;;;;;22.37;43.83;101531.81;4978435;28;45279;-43
2023/08/07 13:06:33;;;;;;;;;4.00;3.00;;;;;22.38;43.75;101533.53;4978427;28;45402;-49
2023/08/07 13:09:00;;;;;;;;;3.00;3.00;;;;;22.37;43.84;101537.09;4978156;28;45496;-46
2023/08/07 13:11:25;;;;;;;;;3.00;3.00;;;;;22.36;43.61;101527.47;4987717;28;45391;-47
2023/08/07 13:13:51;;;;;;;;;2.00;2.00;;;;;22.37;43.96;101526.53;4976835;28;45420;-43
2023/08/07 13:16:16;;;;;;;;;6.00;4.00;;;;;22.35;43.64;101516.06;4978196;28;45502;-47
2023/08/07 13:18:41;;;;;;;;;3.00;3.00;;;;;22.35;43.88;101521.34;4977985;28;46481;-47
2023/08/07 13:21:06;;;;;;;;;2.00;2.00;;;;;22.37;44.05;101510.69;4978231;28;45433;-47
2023/08/07 13:23:32;;;;;;;;;3.00;3.00;;;;;22.39;43.99;101522.88;4977763;28;45319;-52
2023/08/07 13:25:57;;;;;;;;;3.00;3.00;;;;;22.38;43.31;101518.53;4975983;28;55704;-45
2023/08/07 13:28:22;;;;;;;;;2.25;2.25;;;;;22.41;43.85;101522.84;4976492;28;46100;-49
2023/08/07 13:30:48;;;;;;;;;3.25;3.00;;;;;22.42;43.30;101510.47;4977978;28;45269;-49
2023/08/07 13:33:13;;;;;;;;;3.00;3.00;;;;;22.41;43.59;101514.06;4978012;28;45788;-50
2023/08/07 13:35:38;;;;;;;;;3.00;3.00;;;;;22.42;43.46;101510.47;4978040;28;46815;-52
2023/08/07 13:38:07;;;;;;;;;3.00;2.00;;;;;22.43;43.29;101520.13;4977788;28;45372;-47
2023/08/07 13:40:33;;;;;;;;;4.00;4.00;;;;;22.41;43.29;101516.69;4977906;28;45375;-49
2023/08/07 13:43:01;;;;;;;;;3.00;3.00;;;;;22.41;42.62;101509.66;4978027;28;45423;-47
2023/08/07 13:45:27;;;;;;;;;4.75;3.00;;;;;22.42;43.06;101515.75;4977837;28;45590;-48
2023/08/07 13:47:52;;;;;;;;;2.67;2.67;;;;;22.41;43.13;101521.97;4975525;28;65146;-46
2023/08/07 13:50:17;;;;;;;;;3.50;3.50;;;;;22.42;42.57;101521.03;4976249;28;55826;-47
2023/08/07 13:52:42;;;;;;;;;2.50;2.50;;;;;22.42;42.79;101521.03;4977678;28;45218;-49
2023/08/07 13:55:09;;;;;;;;;4.00;4.00;;;;;22.42;42.61;101521.03;4977396;28;50409;-50
2023/08/07 13:57:34;;;;;;;;;5.00;3.00;;;;;22.45;42.84;101527.03;4977297;28;47133;-52
2023/08/07 13:59:59;;;;;;;;;2.00;2.00;;;;;22.43;42.27;101521.00;4977317;28;45358;-50
2023/08/07 14:02:25;;;;;;;;;4.50;4.00;;;;;22.46;42.38;101512.88;4977243;28;45481;-43
2023/08/07 14:04:50;;;;;;;;;2.25;2.25;;;;;22.46;42.07;101517.31;4976881;28;52713;-43
2023/08/07 14:07:15;;;;;;;;;3.00;3.00;;;;;22.47;42.59;101517.22;4975812;28;45403;-46
2023/08/07 14:09:41;;;;;;;;;3.00;3.00;;;;;22.47;42.44;101519.03;4977765;28;45320;-42
2023/08/07 14:12:07;;;;;;;;;2.00;2.00;;;;;22.45;42.14;101516.44;4975734;28;45340;-51
2023/08/07 14:14:32;;;;;;;;;2.00;2.00;;;;;22.46;42.27;101520.81;4977669;28;45674;-43
2023/08/07 14:17:00;;;;;;;;;4.50;3.25;;;;;22.47;42.53;101509.31;4977186;28;46189;-41
2023/08/07 14:19:25;;;;;;;;;3.00;3.00;;;;;22.47;42.18;101514.59;4977272;28;45817;-46
2023/08/07 14:21:51;;;;;;;;;2.00;2.00;;;;;22.47;41.92;101519.03;4976075;28;45301;-45
2023/08/07 14:24:17;;;;;;;;;4.75;3.25;;;;;22.46;42.06;101515.53;4976213;28;45599;-49
2023/08/07 14:26:42;;;;;;;;;3.25;2.00;;;;;22.47;42.11;101514.59;4976036;28;47034;-46
2023/08/07 14:29:07;;;;;;;;;2.25;2.25;;;;;22.48;42.41;101516.28;4977517;28;45366;-52
2023/08/07 14:31:33;;;;;;;;;2.00;2.00;;;;;22.49;42.41;101518.00;4977358;28;45433;-51
2023/08/07 14:33:58;;;;;;;;;3.25;3.25;;;;;22.50;42.32;101514.44;4977334;28;45246;-52
2023/08/07 14:36:23;;;;;;;;;4.00;3.00;;;;;22.47;42.18;101503.19;4977004;28;45357;-50
2023/08/07 14:38:49;;;;;;;;;0.50;0.50;;;;;22.46;41.80;101507.59;4976812;28;45420;-47
2023/08/07 14:41:14;;;;;;;;;3.25;3.25;;;;;22.47;41.81;101517.22;4976797;28;49312;-48
2023/08/07 14:43:39;;;;;;;;;2.75;2.75;;;;;22.48;42.08;101508.38;4977512;28;45608;-47
2023/08/07 14:46:05;;;;;;;;;2.00;2.00;;;;;22.49;42.05;101507.44;4976782;28;46856;-47
2023/08/07 14:48:30;;;;;;;;;2.25;2.25;;;;;22.49;41.79;101496.88;4976903;28;45440;-48
2023/08/07 14:50:57;;;;;;;;;3.25;3.00;;;;;22.49;42.00;101501.31;4977032;28;45340;-51
2023/08/07 14:53:22;;;;;;;;;5.25;3.25;;;;;22.49;42.07;101496.03;4977011;28;45518;-52
2023/08/07 14:55:48;;;;;;;;;3.00;2.25;;;;;22.48;42.21;101495.16;4976181;28;45428;-51
2023/08/07 14:58:13;;;;;;;;;5.00;3.00;;;;;22.48;42.04;101494.34;4976710;28;45466;-55
2023/08/07 15:00:39;;;;;;;;;4.50;2.25;;;;;22.47;42.20;101500.53;4976917;28;45663;-52
2023/08/07 15:03:04;;;;;;;;;2.75;2.25;;;;;22.45;41.93;101492.69;4976935;28;45440;-53
2023/08/07 15:05:29;;;;;;;;;4.00;2.25;;;;;22.46;41.90;101501.47;4976296;28;51161;-55
2023/08/07 15:07:55;;;;;;;;;4.75;3.00;;;;;22.45;42.15;101505.88;4976562;28;45321;-53
2023/08/07 15:10:21;;;;;;;;;5.75;2.00;;;;;22.45;42.12;101510.34;4976663;28;45337;-51
2023/08/07 15:12:47;;;;;;;;;2.50;2.00;;;;;22.43;41.81;101505.13;4976853;28;45518;-49
2023/08/07 15:15:13;;;;;;;;;3.50;2.75;;;;;22.43;41.83;101507.78;4976779;28;45245;-47
2023/08/07 15:17:38;;;;;;;;;1.00;1.00;;;;;22.44;41.82;101508.63;4975830;28;63006;-49
2023/08/07 15:20:04;;;;;;;;;3.25;2.00;;;;;22.43;41.84;101507.78;4976622;28;45340;-46
2023/08/07 15:22:29;;;;;;;;;2.75;1.50;;;;;22.42;41.65;101506.06;4976710;28;45329;-47
2023/08/07 15:24:54;;;;;;;;;2.00;2.00;;;;;22.43;41.45;101501.63;4976346;28;46284;-44
2023/08/07 15:27:19;;;;;;;;;2.50;2.00;;;;;22.42;41.57;101505.19;4975864;28;57162;-45
2023/08/07 15:29:46;;;;;;;;;2.00;2.00;;;;;22.41;41.78;101499.06;4976344;28;55506;-45
2023/08/07 15:32:18;;;;;;;;;2.00;2.00;;;;;22.42;41.72;101494.63;4975610;28;45479;-45
2023/08/07 15:34:44;;;;;;;;;2.25;2.25;;;;;22.41;41.65;101485.88;4976317;28;46242;-47
2023/08/07 15:37:09;;;;;;;;;2.00;2.00;;;;;22.43;41.54;101491.06;4976260;28;45361;-47
2023/08/07 15:39:34;;;;;;;;;1.00;1.00;;;;;22.42;41.51;101486.72;4976387;28;45317;-48
2023/08/07 15:41:59;;;;;;;;;3.00;2.00;;;;;22.41;41.31;101485.00;4976507;28;45204;-46
2023/08/07 15:44:25;;;;;;;;;2.50;1.50;;;;;22.42;41.44;101494.63;4975996;28;45388;-49
2023/08/07 15:46:50;;;;;;;;;2.25;2.00;;;;;22.41;41.27;101487.66;4975411;28;59561;-48
2023/08/07 15:49:15;;;;;;;;;3.67;2.00;;;;;22.41;41.71;101479.72;4976068;28;57237;-47
2023/08/07 15:51:44;;;;;;;;;2.00;2.00;;;;;22.40;41.14;101484.13;4977230;28;45275;-47
2023/08/07 15:54:09;;;;;;;;;2.00;2.00;;;;;22.40;41.34;101478.84;4979377;28;46613;-46
2023/08/07 15:56:34;;;;;;;;;3.00;1.00;;;;;22.39;41.27;101480.63;4979426;28;45307;-49
2023/08/07 15:59:00;;;;;;;;;2.00;2.00;;;;;22.37;41.45;101473.72;4979470;28;45270;-51
2023/08/07 16:01:25;;;;;;;;;3.00;1.75;;;;;22.38;41.27;101473.63;4979514;28;45364;-45
2023/08/07 16:03:51;;;;;;;;;1.00;1.00;;;;;22.39;41.06;101479.78;4979229;28;46424;-48
2023/08/07 16:06:16;;;;;;;;;2.00;2.00;;;;;22.40;41.11;101478.84;4979398;28;45337;-50
2023/08/07 16:08:41;;;;;;;;;1.75;1.25;;;;;22.38;41.53;101472.78;4979379;28;45285;-44
2023/08/07 16:11:07;;;;;;;;;2.00;2.00;;;;;22.39;41.43;101472.69;4978230;28;45245;-48
2023/08/07 16:13:32;;;;;;;;;2.50;2.00;;;;;22.39;41.34;101474.50;4979001;28;47041;-43
2023/08/07 16:15:57;;;;;;;;;0.75;0.75;;;;;22.39;41.32;101466.56;4978655;28;53312;-45
2023/08/07 16:18:23;;;;;;;;;2.00;2.00;;;;;22.39;41.18;101464.78;4978914;28;45440;-48
2023/08/07 16:20:50;;;;;;;;;2.00;2.00;;;;;22.39;40.87;101466.56;4979707;28;45248;-46
2023/08/07 16:23:15;;;;;;;;;3.00;2.00;;;;;22.39;40.94;101461.28;4978051;28;47952;-47
2023/08/07 16:25:41;;;;;;;;;0.00;0.00;;;;;22.37;40.78;101461.38;4978995;28;45272;-42
2023/08/07 16:28:06;;;;;;;;;2.25;2.25;;;;;22.39;41.31;101454.22;4977444;28;45406;-48
2023/08/07 16:30:32;;;;;;;;;2.75;1.50;;;;;22.40;41.30;101455.06;4979201;28;45452;-47
2023/08/07 16:32:58;;;;;;;;;1.25;1.25;;;;;22.41;40.90;101455.94;4978821;28;45579;-51
2023/08/07 16:35:23;;;;;;;;;0.00;0.00;;;;;22.39;41.37;101453.38;4978849;28;45408;-45
2023/08/07 16:37:48;;;;;;;;;2.00;1.00;;;;;22.39;41.17;101448.09;4979249;28;45301;-51
2023/08/07 16:40:14;;;;;;;;;2.00;1.50;;;;;22.41;41.23;101456.81;4977841;28;45366;-43
2023/08/07 16:42:39;;;;;;;;;2.00;2.00;;;;;22.40;40.79;101455.06;4978675;28;46083;-50
2023/08/07 16:45:05;;;;;;;;;1.00;1.00;;;;;22.40;41.39;101455.06;4978491;28;45412;-48
2023/08/07 16:47:30;;;;;;;;;1.50;1.00;;;;;22.40;40.98;101449.78;4978746;28;45396;-45
2023/08/07 16:49:57;;;;;;;;;1.00;1.00;;;;;22.42;41.06;101455.88;4978777;28;45527;-47
2023/08/07 16:52:23;;;;;;;;;2.25;2.00;;;;;22.43;40.99;101448.81;4978540;28;46588;-45
2023/08/07 16:54:49;;;;;;;;;3.00;1.00;;;;;22.44;41.16;101451.34;4978959;28;45269;-42
2023/08/07 16:57:15;;;;;;;;;1.75;1.75;;;;;22.44;41.47;101443.44;4978595;28;45250;-45
2023/08/07 16:59:40;;;;;;;;;2.00;1.00;;;;;22.45;41.17;101437.22;4978609;28;45364;-45
2023/08/07 17:02:06;;;;;;;;;2.00;1.25;;;;;22.45;41.43;101437.22;4976528;28;46130;-44
2023/08/07 17:04:32;;;;;;;;;2.75;1.75;;;;;22.45;41.48;101431.94;4977338;28;46012;-48
2023/08/07 17:07:00;;;;;;;;;1.00;1.00;;;;;22.46;41.66;101433.63;4978485;28;45387;-46
2023/08/07 17:09:25;;;;;;;;;1.50;1.50;;;;;22.46;41.92;101428.34;4978631;28;45424;-41
2023/08/07 17:11:51;;;;;;;;;1.00;1.00;;;;;22.47;41.26;101430.06;4978383;28;46283;-45
2023/08/07 17:14:16;;;;;;;;;2.00;1.00;;;;;22.47;41.54;101437.16;4977818;28;53613;-44
2023/08/07 17:16:41;;;;;;;;;2.00;2.00;;;;;22.46;41.67;101433.63;4978369;28;45518;-44
2023/08/07 17:19:06;;;;;;;;;2.00;2.00;;;;;22.48;41.74;101426.50;4977223;28;45638;-47
2023/08/07 17:21:32;;;;;;;;;1.00;1.00;;;;;22.48;41.55;101426.50;4977527;28;62089;-49
2023/08/07 17:23:57;;;;;;;;;1.50;1.50;;;;;22.47;41.42;101424.78;4978170;28;45238;-47
2023/08/07 17:26:23;;;;;;;;;2.00;2.00;;;;;22.49;41.58;101436.13;4978099;28;45415;-46
2023/08/07 17:28:49;;;;;;;;;4.50;2.00;;;;;22.49;41.35;101430.84;4978546;28;45300;-44
2023/08/07 17:31:14;;;;;;;;;2.00;2.00;;;;;22.48;41.47;101426.50;4978095;28;45228;-52
2023/08/07 17:33:40;;;;;;;;;3.00;2.00;;;;;22.47;41.74;101430.06;4977970;28;45288;-47
2023/08/07 17:36:06;;;;;;;;;1.75;1.75;;;;;22.48;41.15;101441.50;4978144;28;45455;-45
2023/08/07 17:38:31;;;;;;;;;2.50;2.50;;;;;22.43;41.74;101436.47;4978175;28;45562;-46
2023/08/07 17:40:57;;;;;;;;;2.00;2.00;;;;;22.45;41.35;101431.94;4960212;28;47367;-43
2023/08/07 17:43:22;;;;;;;;;2.33;1.67;;;;;22.46;41.11;101440.72;4977512;28;61398;-44
2023/08/07 17:45:47;;;;;;;;;1.25;1.00;;;;;22.45;41.11;101437.22;4977604;28;45348;-44
2023/08/07 17:48:13;;;;;;;;;1.75;1.75;;;;;22.44;40.96;101434.66;4978036;28;45494;-45
2023/08/07 17:50:38;;;;;;;;;4.00;1.00;;;;;22.41;41.59;101451.53;4977657;28;46132;-43
2023/08/07 17:53:04;;;;;;;;;2.00;2.00;;;;;22.43;41.25;101447.03;4977786;28;45730;-48
2023/08/07 17:55:30;;;;;;;;;3.00;1.25;;;;;22.42;41.02;101447.97;4977771;28;45381;-40
2023/08/07 17:57:55;;;;;;;;;1.25;1.00;;;;;22.43;41.16;101444.38;4978055;28;45630;-45
2023/08/07 18:00:21;;;;;;;;;1.50;1.50;;;;;22.43;41.31;101444.38;4977789;28;46582;-46
2023/08/07 18:02:46;;;;;;;;;3.75;2.00;;;;;22.43;41.45;101444.38;4977505;28;45214;-49
2023/08/07 18:05:11;;;;;;;;;1.00;1.00;;;;;22.44;41.49;101440.78;4977556;28;45420;-48
2023/08/07 18:07:38;;;;;;;;;3.00;2.00;;;;;22.41;41.49;101443.63;4977520;28;45562;-46
2023/08/07 18:10:05;;;;;;;;;1.25;1.25;;;;;22.42;41.20;101440.03;4977246;28;45396;-46
2023/08/07 18:12:30;;;;;;;;;5.00;1.75;;;;;22.43;41.26;101447.03;4977285;28;45209;-46
2023/08/07 18:14:56;;;;;;;;;2.00;2.00;;;;;22.41;41.27;101442.75;4976726;28;45343;-45
2023/08/07 18:17:23;;;;;;;;;2.00;1.00;;;;;22.42;41.36;101445.31;4977777;28;45561;-46
2023/08/07 18:19:49;;;;;;;;;3.00;2.25;;;;;22.42;41.45;101442.69;4977130;28;46204;-48
2023/08/07 18:22:14;;;;;;;;;2.00;2.00;;;;;22.43;41.68;101447.03;4977214;28;45326;-49
2023/08/07 18:24:39;;;;;;;;;2.50;2.50;;;;;22.42;41.32;101441.81;4977302;28;45301;-43
2023/08/07 18:27:05;;;;;;;;;1.00;1.00;;;;;22.42;41.52;101447.09;4977355;28;45386;-46
2023/08/07 18:29:30;;;;;;;;;1.00;1.00;;;;;22.40;41.21;101444.50;4977157;28;45839;-46
2023/08/07 18:31:55;;;;;;;;;1.75;1.75;;;;;22.39;41.70;101443.66;4976792;28;52923;-43
2023/08/07 18:34:21;;;;;;;;;4.00;2.00;;;;;22.39;41.26;101453.38;4977098;28;52598;-47
2023/08/07 18:36:46;;;;;;;;;1.25;1.25;;;;;22.37;41.52;101452.59;4976961;28;45365;-52
2023/08/07 18:39:11;;;;;;;;;2.00;2.00;;;;;22.39;41.20;101458.66;4975669;28;47021;-50
2023/08/07 18:41:37;;;;;;;;;2.50;2.50;;;;;22.38;41.47;101454.31;4976995;28;45416;-46
2023/08/07 18:44:02;;;;;;;;;3.25;2.75;;;;;22.39;41.68;101458.66;4976442;28;54330;-51
2023/08/07 18:46:28;;;;;;;;;3.00;1.75;;;;;22.39;41.41;101456.84;4977087;28;45325;-49
2023/08/07 18:48:54;;;;;;;;;5.00;2.00;;;;;22.38;41.65;101452.50;4977117;28;45539;-48
2023/08/07 18:51:19;;;;;;;;;2.25;2.25;;;;;22.37;41.22;101460.53;4976866;28;45697;-47
2023/08/07 18:53:45;;;;;;;;;2.00;2.00;;;;;22.37;41.18;101463.16;4976678;28;45372;-47
2023/08/07 18:56:10;;;;;;;;;1.00;1.00;;;;;22.37;41.06;101456.09;4977078;28;45393;-47
2023/08/07 18:58:35;;;;;;;;;3.25;2.25;;;;;22.35;41.25;101454.47;4975910;28;63102;-48
2023/08/07 19:01:01;;;;;;;;;1.75;1.75;;;;;22.35;40.71;101468.53;4976650;28;45313;-45
2023/08/07 19:03:26;;;;;;;;;4.00;3.00;;;;;22.34;41.07;101472.09;4977133;28;45420;-45
2023/08/07 19:05:51;;;;;;;;;1.50;1.50;;;;;22.33;41.07;101462.47;4959539;28;45329;-43
2023/08/07 19:08:17;;;;;;;;;1.75;1.00;;;;;22.33;40.72;101458.97;4975317;28;45524;-42
2023/08/07 19:10:44;;;;;;;;;1.75;1.75;;;;;22.32;40.64;101467.84;4976638;28;45696;-42
2023/08/07 19:13:10;;;;;;;;;2.00;2.00;;;;;22.32;40.25;101470.50;4976700;28;45340;-47
2023/08/07 19:15:35;;;;;;;;;3.00;3.00;;;;;22.31;40.45;101472.25;4976957;28;45542;-40
2023/08/07 19:18:03;;;;;;;;;1.00;1.00;;;;;22.31;40.41;101469.63;4976497;28;45638;-43
2023/08/07 19:20:28;;;;;;;;;1.75;1.00;;;;;22.31;40.43;101468.78;4976525;28;45444;-42
2023/08/07 19:22:54;;;;;;;;;1.00;1.00;;;;;22.30;40.21;101469.72;4976910;28;45384;-45
2023/08/07 19:25:19;;;;;;;;;2.00;2.00;;;;;22.29;40.22;101466.19;4976907;28;45235;-48
2023/08/07 19:27:44;;;;;;;;;1.00;1.00;;;;;22.29;40.40;101471.47;4978292;28;47453;-45
2023/08/07 19:30:10;;;;;;;;;1.50;1.25;;;;;22.28;40.21;101461.00;4979713;28;47279;-45
2023/08/07 19:32:35;;;;;;;;;2.75;1.50;;;;;22.26;40.30;101463.75;4979960;28;45591;-47
2023/08/07 19:35:01;;;;;;;;;1.00;1.00;;;;;22.29;40.38;101473.28;4979968;28;45391;-46
2023/08/07 19:37:26;;;;;;;;;2.00;2.00;;;;;22.28;40.53;101466.28;4979834;28;46527;-45
2023/08/07 19:39:51;;;;;;;;;1.00;1.00;;;;;22.30;40.48;101475.00;4979805;28;45292;-45
2023/08/07 19:42:17;;;;;;;;;2.00;1.25;;;;;22.34;40.31;101476.50;4979571;28;45321;-46
2023/08/07 19:44:43;;;;;;;;;2.00;1.25;;;;;22.37;40.42;101486.94;4979823;28;45397;-45
2023/08/07 19:47:08;;;;;;;;;2.00;2.00;;;;;22.41;40.62;101482.38;4979409;28;46406;-44
2023/08/07 19:49:33;;;;;;;;;1.25;1.25;;;;;22.42;40.20;101482.31;4979633;28;45353;-44
2023/08/07 19:51:59;;;;;;;;;5.00;2.00;;;;;22.44;40.19;101485.69;4979292;28;58824;-46
2023/08/07 19:54:25;;;;;;;;;1.00;1.00;;;;;22.46;40.27;101491.75;4979830;28;45419;-44
2023/08/07 19:56:50;;;;;;;;;1.00;1.00;;;;;22.46;40.49;101496.19;4979304;28;45479;-48
2023/08/07 19:59:15;;;;;;;;;2.00;1.00;;;;;22.44;40.28;101498.06;4979430;28;45341;-50
2023/08/07 20:01:41;;;;;;;;;1.50;1.50;;;;;22.44;40.17;101498.06;4979360;28;45381;-43
2023/08/07 20:04:06;;;;;;;;;2.00;2.00;;;;;22.42;40.40;101500.78;4978372;28;45261;-43
2023/08/07 20:06:32;;;;;;;;;2.00;2.00;;;;;22.40;40.29;101497.34;4979220;28;46919;-41
2023/08/07 20:08:57;;;;;;;;;1.00;1.00;;;;;22.41;40.47;101498.22;4979441;28;45167;-46
2023/08/07 20:11:26;;;;;;;;;4.50;1.75;;;;;22.39;40.19;101491.19;4979214;28;45357;-43
2023/08/07 20:13:51;;;;;;;;;3.00;0.50;;;;;22.38;40.59;101489.47;4978047;28;45900;-49
2023/08/07 20:16:17;;;;;;;;;2.00;1.75;;;;;22.38;40.70;101496.56;4978800;28;50345;-46
2023/08/07 20:18:42;;;;;;;;;4.00;2.00;;;;;22.37;40.57;101497.50;4977723;28;45342;-43
2023/08/07 20:21:07;;;;;;;;;2.00;1.75;;;;;22.38;40.55;101504.47;4978689;28;55121;-48
2023/08/07 20:23:33;;;;;;;;;1.00;1.00;;;;;22.36;40.93;101493.13;4979205;28;45546;-40
2023/08/07 20:25:58;;;;;;;;;1.00;1.00;;;;;22.36;40.84;101501.06;4978486;28;61874;-44
2023/08/07 20:28:23;;;;;;;;;2.00;2.00;;;;;22.33;40.97;101494.16;4978959;28;45439;-42
2023/08/07 20:30:49;;;;;;;;;2.00;2.00;;;;;22.35;40.94;101499.34;4978957;28;45333;-47
2023/08/07 20:33:14;;;;;;;;;2.50;2.00;;;;;22.35;40.63;101494.94;4979145;28;45425;-49
2023/08/07 20:35:39;;;;;;;;;1.00;1.00;;;;;22.34;40.79;101497.66;4977415;28;46025;-44
2023/08/07 20:38:04;;;;;;;;;2.75;2.25;;;;;22.32;40.70;101505.66;4978342;28;45348;-44
2023/08/07 20:40:31;;;;;;;;;2.00;2.00;;;;;22.33;40.66;101502.09;4979155;28;45322;-49
2023/08/07 20:42:58;;;;;;;;;4.00;2.00;;;;;22.32;40.97;101499.53;4978931;28;45421;-43
2023/08/07 20:45:24;;;;;;;;;1.75;1.75;;;;;22.32;40.93;101494.25;4978368;28;47145;-50
2023/08/07 20:47:49;;;;;;;;;2.00;1.25;;;;;22.31;40.79;101495.19;4978418;28;45217;-50
2023/08/07 20:50:14;;;;;;;;;1.50;1.00;;;;;22.31;40.93;101492.53;4978345;28;49763;-51
2023/08/07 20:52:39;;;;;;;;;3.00;1.50;;;;;22.29;40.80;101487.31;4978762;28;45302;-43
2023/08/07 20:55:06;;;;;;;;;1.50;1.50;;;;;22.30;41.15;101490.84;4977945;28;59422;-47
2023/08/07 20:57:31;;;;;;;;;2.00;2.00;;;;;22.29;40.86;101483.84;4977431;28;45803;-48
2023/08/07 20:59:56;;;;;;;;;3.00;2.00;;;;;22.29;41.00;101486.50;4978321;28;45683;-48
2023/08/07 21:02:21;;;;;;;;;1.75;1.00;;;;;22.30;41.02;101477.63;4978612;28;45438;-48
2023/08/07 21:04:47;;;;;;;;;2.00;2.00;;;;;22.29;40.86;101478.56;4978295;28;45769;-47
2023/08/07 21:07:12;;;;;;;;;0.75;0.75;;;;;22.29;41.05;101475.94;4978126;28;45290;-43
2023/08/07 21:09:37;;;;;;;;;2.50;2.00;;;;;22.28;41.19;101471.56;4978262;28;45325;-45
2023/08/07 21:12:03;;;;;;;;;1.50;1.50;;;;;22.27;41.11;101472.50;4978385;28;46024;-45
2023/08/07 21:14:31;;;;;;;;;0.75;0.75;;;;;22.27;40.88;101469.88;4978051;28;46096;-43
2023/08/07 21:16:56;;;;;;;;;1.00;1.00;;;;;22.28;41.06;101471.56;4978160;28;45627;-44
2023/08/07 21:19:21;;;;;;;;;1.00;1.00;;;;;22.29;41.11;101468.00;4978288;28;45413;-48
2023/08/07 21:21:46;;;;;;;;;1.50;1.00;;;;;22.27;41.26;101469.88;4978242;28;45595;-46
2023/08/07 21:24:12;;;;;;;;;1.25;1.25;;;;;22.27;41.15;101469.88;4977745;28;55259;-42
2023/08/07 21:26:39;;;;;;;;;2.00;1.00;;;;;22.27;41.09;101461.94;4977806;28;45303;-48
2023/08/07 21:29:04;;;;;;;;;3.00;1.00;;;;;22.24;41.60;101461.16;4978439;28;45242;-51
2023/08/07 21:31:30;;;;;;;;;2.75;2.75;;;;;22.25;41.41;101456.75;4978207;28;45685;-45
2023/08/07 21:33:56;;;;;;;;;1.00;1.00;;;;;22.24;41.38;101461.16;4977809;28;47243;-51
2023/08/07 21:36:21;;;;;;;;;2.00;2.00;;;;;22.27;41.52;101454.03;4977721;28;45703;-51
2023/08/07 21:38:46;;;;;;;;;1.00;1.00;;;;;22.25;41.45;101448.84;4977810;28;45421;-50
2023/08/07 21:41:12;;;;;;;;;1.00;1.00;;;;;22.25;41.72;101446.19;4977367;28;54180;-46
2023/08/07 21:43:37;;;;;;;;;1.00;1.00;;;;;22.26;41.77;101444.38;4977555;28;52633;-42
2023/08/07 21:46:03;;;;;;;;;2.00;2.00;;;;;22.24;41.56;101444.47;4976569;28;45270;-42
2023/08/07 21:48:28;;;;;;;;;2.00;2.00;;;;;22.25;41.65;101446.19;4977067;28;45309;-51
2023/08/07 21:50:53;;;;;;;;;2.00;1.75;;;;;22.23;41.54;101448.91;4977290;28;52217;-52
2023/08/07 21:53:18;;;;;;;;;2.75;2.50;;;;;22.24;41.55;101445.31;4977517;28;46366;-51
2023/08/07 21:55:44;;;;;;;;;2.00;2.00;;;;;22.24;41.54;101450.59;4976671;28;63030;-48
2023/08/07 21:58:09;;;;;;;;;2.00;2.00;;;;;22.24;41.99;101455.03;4977690;28;45375;-49
2023/08/07 22:00:34;;;;;;;;;3.25;2.00;;;;;22.23;41.75;101448.06;4977938;28;45569;-46